Terminal Aerodrome Forecast
Issued by NWS

Home | Current Version | Previous Version | Text Only | Print | Product List | Glossary On
Versions: 1 2 3 4 5 6 7 8 9 10 11 12 13 14 15 16 17 18 19 20 21 22 23 24 25 26 27 28 29 30 31 32 33 34 35 36 37 38 39 40 41 42 43 44 45 46 47 48 49 50
000
FTUS45 KBOU 240057 AAA
TAFAPA
TAF AMD
KAPA 240057Z 2401/2424 36010KT P6SM VCSH SCT050 BKN070 OVC110
      TEMPO 2401/2402 -SHSN BKN040
     FM240200 34008KT P6SM FEW050 BKN080
     FM240500 27010KT P6SM SCT110 SCT200
     FM240900 24010KT P6SM SCT200
     FM241700 31012KT P6SM FEW070 SCT100 BKN220
     FM242000 33014G22KT P6SM VCSH SCT070 BKN100 BKN200=

USA.gov is the U.S. government's official web portal to all federal, state and local government web resources and services.